Time;durP1;ratioP1;P1;durP2;ratioP2;P2;SDS_P1;SDS_P2;PMS_P1;PMS_P2;Temp;Humidity;BMP_temperature;BMP_pressure;BME280_temperature;BME280_humidity;BME280_pressure;Samples;Min_cycle;Max_cycle;Signal;HPM_P1;HPM_P2
2022/06/05 00:00:10;;;;;;;22.38;14.35;;;9.70;99.90;;;;;;5053286;28;20048;-42
2022/06/05 00:03:00;;;;;;;20.15;14.20;;;9.90;99.90;;;;;;5068724;28;20435;-43
2022/06/05 00:05:36;;;;;;;20.50;14.55;;;9.60;99.90;;;;;;5035969;28;20052;-43
2022/06/05 00:08:12;;;;;;;20.73;14.90;;;9.70;99.90;;;;;;5052241;28;20044;-43
2022/06/05 00:10:45;;;;;;;23.70;15.48;;;9.70;99.90;;;;;;5065295;28;20851;-44
2022/06/05 00:13:18;;;;;;;22.92;14.35;;;9.50;99.90;;;;;;5052556;28;21702;-42
2022/06/05 00:15:44;;;;;;;25.08;15.90;;;9.70;99.90;;;;;;5035578;28;20149;-43
2022/06/05 00:18:11;;;;;;;24.88;14.65;;;9.70;99.90;;;;;;5053104;28;20143;-41
2022/06/05 00:20:37;;;;;;;21.67;14.13;;;11.00;99.90;;;;;;5053892;28;20044;-41
2022/06/05 00:23:04;;;;;;;23.95;13.88;;;11.80;99.90;;;;;;5087079;28;20394;-42
2022/06/05 00:26:07;;;;;;;24.98;15.07;;;9.70;99.90;;;;;;5085649;28;20387;-42
2022/06/05 00:28:47;;;;;;;;;;;9.90;99.90;;;;;;5087888;28;20147;-43
2022/06/05 00:31:37;;;;;;;19.85;12.60;;;9.90;99.90;;;;;;5054198;28;19928;-42
2022/06/05 00:34:02;;;;;;;24.60;15.80;;;9.90;99.90;;;;;;5086755;28;20040;-44
2022/06/05 00:36:37;;;;;;;19.30;13.48;;;9.80;99.90;;;;;;5052136;28;20503;-42
2022/06/05 00:39:40;;;;;;;21.33;14.05;;;11.60;99.90;;;;;;5052585;28;20091;-41
2022/06/05 00:42:13;;;;;;;23.13;14.40;;;9.90;99.90;;;;;;5029149;28;20441;-42
2022/06/05 00:44:41;;;;;;;25.83;14.25;;;9.80;99.90;;;;;;5032119;28;20052;-44
2022/06/05 00:47:12;;;;;;;22.67;12.32;;;10.00;99.90;;;;;;5014855;28;20392;-41
2022/06/05 00:49:56;;;;;;;18.58;14.13;;;10.00;99.90;;;;;;5029098;28;20076;-44
2022/06/05 00:52:24;;;;;;;19.88;13.68;;;10.70;99.90;;;;;;5030204;28;20132;-41
2022/06/05 00:54:50;;;;;;;18.77;13.77;;;10.20;99.90;;;;;;5029875;28;20104;-42
2022/06/05 00:57:16;;;;;;;19.63;13.82;;;10.20;99.90;;;;;;5013297;28;20046;-41
2022/06/05 00:59:44;;;;;;;23.25;11.98;;;10.30;99.90;;;;;;5010425;28;20041;-44
2022/06/05 01:02:11;;;;;;;18.38;13.38;;;10.10;99.90;;;;;;5013329;28;20063;-41
2022/06/05 01:04:41;;;;;;;21.48;14.10;;;10.10;99.90;;;;;;5030354;28;20690;-41
2022/06/05 01:07:09;;;;;;;17.95;14.35;;;9.90;99.90;;;;;;4995735;28;20451;-41
2022/06/05 01:09:35;;;;;;;21.52;13.75;;;9.90;99.90;;;;;;5010114;28;20147;-42
2022/06/05 01:12:51;;;;;;;25.63;14.38;;;10.00;99.90;;;;;;5029358;28;20148;-43
2022/06/05 01:15:27;;;;;;;22.55;13.45;;;10.10;99.90;;;;;;4975844;28;20050;-42
2022/06/05 01:18:11;;;;;;;21.05;13.35;;;12.10;99.90;;;;;;4991499;28;20529;-41
2022/06/05 01:20:58;;;;;;;25.95;15.32;;;10.10;99.90;;;;;;4991492;28;20345;-42
2022/06/05 01:23:48;;;;;;;18.95;13.07;;;10.00;99.90;;;;;;4974644;28;20058;-42
2022/06/05 01:26:20;;;;;;;27.42;14.48;;;10.10;99.90;;;;;;4973430;28;20038;-42
2022/06/05 01:28:55;;;;;;;24.92;14.07;;;10.00;99.90;;;;;;4972187;28;20133;-41
2022/06/05 01:31:25;;;;;;;24.00;14.85;;;11.90;99.90;;;;;;4975730;28;20252;-43
2022/06/05 01:34:18;;;;;;;25.27;14.63;;;11.70;99.90;;;;;;4991633;28;20049;-47
2022/06/05 01:36:52;;;;;;;26.23;14.75;;;10.20;99.90;;;;;;4970472;28;20412;-43
2022/06/05 01:39:28;;;;;;;18.95;12.98;;;10.20;99.90;;;;;;4971110;28;20054;-42
2022/06/05 01:41:58;;;;;;;18.83;13.75;;;10.10;99.90;;;;;;4956327;28;20045;-43
2022/06/05 01:44:47;;;;;;;24.70;14.25;;;11.10;99.90;;;;;;4971855;28;20507;-45
2022/06/05 01:47:23;;;;;;;23.70;14.52;;;10.10;99.90;;;;;;4955083;28;20054;-42
2022/06/05 01:49:59;;;;;;;21.63;14.63;;;10.00;99.90;;;;;;4985683;28;20083;-42
2022/06/05 01:52:33;;;;;;;19.55;13.02;;;10.10;99.90;;;;;;4999883;28;20041;-42
2022/06/05 01:55:08;;;;;;;22.25;13.80;;;10.30;99.90;;;;;;5021208;28;20052;-41
2022/06/05 01:57:36;;;;;;;24.83;13.73;;;10.30;99.90;;;;;;5053618;28;20033;-42
2022/06/05 02:00:13;;;;;;;20.55;13.07;;;10.20;99.90;;;;;;5019924;28;20513;-44
2022/06/05 02:03:07;;;;;;;19.00;13.95;;;10.40;99.90;;;;;;5035415;28;20186;-41
2022/06/05 02:06:00;;;;;;;22.17;13.65;;;10.30;99.90;;;;;;5018808;28;20053;-42
2022/06/05 02:08:33;;;;;;;26.23;14.63;;;10.40;99.90;;;;;;5035801;28;20051;-41
2022/06/05 02:11:14;;;;;;;18.70;13.25;;;10.20;99.90;;;;;;5018819;28;20136;-45
2022/06/05 02:13:42;;;;;;;23.65;14.77;;;10.40;99.90;;;;;;5067178;28;20087;-42
2022/06/05 02:16:08;;;;;;;24.13;15.10;;;11.30;99.90;;;;;;5056499;28;20813;-42
2022/06/05 02:18:34;;;;;;;20.38;13.77;;;10.30;99.90;;;;;;5056415;28;20051;-41
2022/06/05 02:21:01;;;;;;;23.58;13.65;;;10.70;99.90;;;;;;5091084;28;20292;-41
2022/06/05 02:23:32;;;;;;;20.30;13.05;;;10.50;99.90;;;;;;5057717;28;20763;-46
2022/06/05 02:26:00;;;;;;;20.75;13.20;;;10.40;99.90;;;;;;5055221;28;20052;-42
2022/06/05 02:28:25;;;;;;;23.63;12.48;;;10.40;99.90;;;;;;5055530;28;20050;-42
2022/06/05 02:31:07;;;;;;;23.13;13.88;;;10.30;99.90;;;;;;5059646;28;20071;-42
2022/06/05 02:34:11;;;;;;;17.83;12.82;;;10.60;99.90;;;;;;5044954;28;20044;-43
2022/06/05 02:37:00;;;;;;;19.10;11.48;;;10.60;99.90;;;;;;5015465;28;20102;-46
2022/06/05 02:39:45;;;;;;;26.55;15.07;;;10.80;99.90;;;;;;4997888;28;20415;-45
2022/06/05 02:42:40;;;;;;;19.77;12.02;;;10.70;99.90;;;;;;5014277;28;20437;-43
2022/06/05 02:45:35;;;;;;;21.70;13.07;;;10.70;99.90;;;;;;4998478;28;20091;-43
2022/06/05 02:48:14;;;;;;;19.67;12.55;;;10.70;99.90;;;;;;5000771;28;20096;-44
2022/06/05 02:51:10;;;;;;;24.10;12.95;;;10.80;99.90;;;;;;5000726;28;20140;-44
2022/06/05 02:53:51;;;;;;;22.42;12.60;;;10.70;99.90;;;;;;4977057;28;20129;-43
2022/06/05 02:56:18;;;;;;;24.27;13.82;;;10.80;99.90;;;;;;4993431;28;20983;-46
2022/06/05 02:58:47;;;;;;;14.02;9.65;;;12.10;99.90;;;;;;4979332;28;20050;-42
2022/06/05 03:03:57;;;;;;;20.92;12.30;;;10.70;99.90;;;;;;4991773;28;20423;-44
2022/06/05 03:06:24;;;;;;;21.65;12.52;;;10.60;99.90;;;;;;4992019;28;20050;-42
2022/06/05 03:08:49;;;;;;;21.92;13.25;;;11.50;99.90;;;;;;4974889;28;20050;-44
2022/06/05 03:11:15;;;;;;;24.98;13.88;;;10.90;99.90;;;;;;4976111;28;20088;-41
2022/06/05 03:13:41;;;;;;;26.27;13.43;;;11.40;99.90;;;;;;5011248;28;20052;-46
2022/06/05 03:16:08;;;;;;;26.17;14.05;;;12.90;99.90;;;;;;5032730;28;20041;-44
2022/06/05 03:18:34;;;;;;;23.13;13.57;;;11.90;99.90;;;;;;5033701;28;20055;-46
2022/06/05 03:21:00;;;;;;;26.15;13.35;;;10.70;99.90;;;;;;5033074;28;20056;-47
2022/06/05 03:23:26;;;;;;;23.65;14.07;;;11.90;99.90;;;;;;5030678;28;20552;-44
2022/06/05 03:25:52;;;;;;;26.98;14.40;;;10.80;99.90;;;;;;5014891;28;20045;-44
2022/06/05 03:28:20;;;;;;;22.75;12.85;;;12.70;99.90;;;;;;5031715;28;20102;-46
2022/06/05 03:30:45;;;;;;;26.75;14.43;;;12.80;99.90;;;;;;5047802;28;20052;-47
2022/06/05 03:33:11;;;;;;;22.67;14.40;;;10.90;99.90;;;;;;5052676;28;20327;-48
2022/06/05 03:35:39;;;;;;;27.80;13.65;;;11.80;99.90;;;;;;5085916;28;20055;-44
2022/06/05 03:38:07;;;;;;;19.40;13.27;;;10.80;99.90;;;;;;5055073;28;20044;-45
2022/06/05 03:40:33;;;;;;;24.40;13.88;;;10.90;99.90;;;;;;5053118;28;20071;-47
2022/06/05 03:42:59;;;;;;;16.38;9.48;;;12.10;99.90;;;;;;5052309;28;20464;-44
2022/06/05 03:45:27;;;;;;;22.90;13.65;;;12.20;99.90;;;;;;5051895;28;20056;-47
2022/06/05 03:47:53;;;;;;;26.98;14.65;;;12.70;99.90;;;;;;5050638;28;20781;-45
2022/06/05 03:50:19;;;;;;;24.73;13.35;;;10.90;99.90;;;;;;5030140;28;20045;-42
2022/06/05 03:52:47;;;;;;;21.00;14.52;;;11.20;99.90;;;;;;5053112;28;20278;-44
2022/06/05 03:55:19;;;;;;;23.17;15.07;;;11.70;99.90;;;;;;5086048;28;20044;-43
2022/06/05 03:57:45;;;;;;;26.45;15.60;;;11.10;99.90;;;;;;5085928;28;20033;-48
2022/06/05 04:00:13;;;;;;;26.02;15.70;;;12.30;99.90;;;;;;5054100;28;20055;-47
2022/06/05 04:02:40;;;;;;;30.48;18.13;;;11.30;99.90;;;;;;5054184;28;20460;-46
2022/06/05 04:05:07;;;;;;;25.27;16.88;;;11.80;99.90;;;;;;5036171;28;20118;-48
2022/06/05 04:07:35;;;;;;;33.05;16.63;;;11.00;99.90;;;;;;5052200;28;20051;-45
2022/06/05 04:10:01;;;;;;;32.17;16.50;;;11.30;99.90;;;;;;5051577;28;20039;-49
2022/06/05 04:12:26;;;;;;;28.38;16.00;;;11.30;99.90;;;;;;5033814;28;20053;-47
2022/06/05 04:14:52;;;;;;;24.98;15.20;;;12.20;99.90;;;;;;5053443;28;20075;-45
2022/06/05 04:17:18;;;;;;;29.13;17.70;;;11.60;99.90;;;;;;5035481;28;20132;-47
2022/06/05 04:19:44;;;;;;;23.77;14.93;;;11.30;99.90;;;;;;5053884;28;20503;-46
2022/06/05 04:22:09;;;;;;;27.52;15.93;;;11.70;99.90;;;;;;5053164;28;20036;-48
2022/06/05 04:24:36;;;;;;;29.42;15.40;;;11.70;99.90;;;;;;5030557;28;20071;-45
2022/06/05 04:27:03;;;;;;;26.40;16.60;;;12.50;99.90;;;;;;5085181;28;20040;-46
2022/06/05 04:29:29;;;;;;;24.85;14.80;;;11.60;99.90;;;;;;5051686;28;20044;-44
2022/06/05 04:31:55;;;;;;;18.17;12.43;;;11.60;99.90;;;;;;5054247;28;21020;-47
2022/06/05 04:34:23;;;;;;;27.30;15.15;;;11.70;99.90;;;;;;5051216;28;20048;-46
2022/06/05 04:36:49;;;;;;;23.65;14.15;;;11.80;99.90;;;;;;5052462;28;20068;-44
2022/06/05 04:39:15;;;;;;;19.80;13.50;;;11.90;99.90;;;;;;5085407;28;20045;-44
2022/06/05 04:41:42;;;;;;;20.63;14.23;;;11.90;99.90;;;;;;5052483;28;20044;-48
2022/06/05 04:44:11;;;;;;;22.48;14.93;;;12.40;99.90;;;;;;5034458;28;20052;-48
2022/06/05 04:46:37;;;;;;;25.42;14.20;;;12.30;99.90;;;;;;5085277;28;20119;-47
2022/06/05 04:49:06;;;;;;;23.75;14.25;;;12.20;99.90;;;;;;5050170;28;20044;-47
2022/06/05 04:51:33;;;;;;;23.73;14.68;;;12.30;99.90;;;;;;5051369;28;20650;-47
2022/06/05 04:54:01;;;;;;;23.13;14.95;;;12.40;99.90;;;;;;5031417;28;20063;-47
2022/06/05 04:56:28;;;;;;;20.48;12.15;;;12.50;99.90;;;;;;5050863;28;20668;-48
2022/06/05 04:58:54;;;;;;;26.70;14.02;;;12.30;99.90;;;;;;5050599;28;20044;-43
2022/06/05 05:01:27;;;;;;;21.00;13.27;;;12.50;99.90;;;;;;5084558;28;20057;-43
2022/06/05 05:03:54;;;;;;;;;;;12.40;99.90;;;;;;5030282;28;20068;-43
2022/06/05 05:06:21;;;;;;;21.98;13.45;;;12.50;99.90;;;;;;5051309;28;19924;-45
2022/06/05 05:08:46;;;;;;;22.77;14.20;;;14.60;99.90;;;;;;5050604;28;20135;-45
2022/06/05 05:11:14;;;;;;;25.20;14.55;;;12.50;99.90;;;;;;5051856;28;20055;-44
2022/06/05 05:13:41;;;;;;;23.83;14.15;;;13.90;99.90;;;;;;5084722;28;20060;-46
2022/06/05 05:16:06;;;;;;;24.45;15.15;;;13.30;99.90;;;;;;5052226;28;20118;-45
2022/06/05 05:18:33;;;;;;;23.77;15.25;;;14.30;99.90;;;;;;5050669;28;20040;-43
2022/06/05 05:21:11;;;;;;;21.98;13.77;;;12.70;99.90;;;;;;5050808;28;20045;-44
2022/06/05 05:23:39;;;;;;;21.98;13.63;;;13.00;99.90;;;;;;5085317;28;20056;-42
2022/06/05 05:26:13;;;;;;;20.65;13.65;;;14.20;99.90;;;;;;5085799;28;20060;-44
2022/06/05 05:28:41;;;;;;;18.52;13.00;;;15.00;99.90;;;;;;5051871;28;20035;-43
2022/06/05 05:31:10;;;;;;;20.92;13.35;;;15.50;99.90;;;;;;5085464;28;20063;-43
2022/06/05 05:33:37;;;;;;;16.33;12.55;;;13.50;99.90;;;;;;5052184;28;20044;-43
2022/06/05 05:36:03;;;;;;;17.65;12.43;;;15.50;99.90;;;;;;5084581;28;20117;-46
2022/06/05 05:38:28;;;;;;;18.70;13.43;;;13.60;99.90;;;;;;5051087;28;20036;-43
2022/06/05 05:43:38;;;;;;;21.23;13.30;;;14.80;99.90;;;;;;5084426;28;20055;-44
2022/06/05 05:46:09;;;;;;;16.30;12.07;;;13.80;99.90;;;;;;5051814;28;20040;-43
2022/06/05 05:48:34;;;;;;;22.70;12.52;;;14.40;99.90;;;;;;5082583;28;20060;-48
2022/06/05 05:51:00;;;;;;;13.80;11.32;;;14.50;99.90;;;;;;5051314;28;20053;-45
2022/06/05 05:53:27;;;;;;;15.70;11.52;;;15.10;99.90;;;;;;5051030;28;20040;-44
2022/06/05 05:55:53;;;;;;;17.45;11.35;;;16.20;99.90;;;;;;5050535;28;20068;-45
2022/06/05 05:58:19;;;;;;;17.35;11.75;;;14.80;99.90;;;;;;5084660;28;20048;-44
2022/06/05 06:00:44;;;;;;;16.55;11.00;;;16.40;99.90;;;;;;5050557;28;20044;-43
2022/06/05 06:03:10;;;;;;;16.67;11.23;;;16.40;99.90;;;;;;5050741;28;20060;-44
2022/06/05 06:05:36;;;;;;;18.00;10.68;;;14.50;99.90;;;;;;5048890;28;20059;-45
2022/06/05 06:08:02;;;;;;;15.00;11.70;;;14.10;99.90;;;;;;5050741;28;20308;-43
2022/06/05 06:10:28;;;;;;;16.63;11.05;;;14.40;99.90;;;;;;5051654;28;20085;-44
2022/06/05 06:12:54;;;;;;;14.32;10.88;;;16.30;99.90;;;;;;5082759;28;20131;-45
2022/06/05 06:15:20;;;;;;;13.07;10.50;;;15.40;99.90;;;;;;5050774;28;20122;-47
2022/06/05 06:17:45;;;;;;;14.23;10.63;;;14.60;99.90;;;;;;5049333;28;20119;-47
2022/06/05 06:20:12;;;;;;;15.30;10.48;;;14.70;99.90;;;;;;5049796;28;20074;-46
2022/06/05 06:22:41;;;;;;;14.10;10.02;;;16.90;99.90;;;;;;5051112;28;20503;-44
2022/06/05 06:25:08;;;;;;;19.98;10.65;;;14.80;99.90;;;;;;5050363;28;20119;-46
2022/06/05 06:27:33;;;;;;;15.98;10.20;;;14.70;99.90;;;;;;5064990;28;20043;-48
2022/06/05 06:29:59;;;;;;;13.45;10.00;;;14.80;99.90;;;;;;5050697;28;20604;-45
2022/06/05 06:32:25;;;;;;;13.60;9.57;;;14.90;99.90;;;;;;5051151;28;20036;-44
2022/06/05 06:34:51;;;;;;;14.52;10.38;;;15.10;99.90;;;;;;5051065;28;20089;-45
2022/06/05 06:37:16;;;;;;;11.82;9.63;;;14.90;99.90;;;;;;5049153;28;20087;-45
2022/06/05 06:39:43;;;;;;;14.07;10.70;;;15.80;99.90;;;;;;5052804;28;20048;-44
2022/06/05 06:42:08;;;;;;;14.98;10.07;;;15.40;99.90;;;;;;5038463;28;20059;-43
2022/06/05 06:44:37;;;;;;;16.20;9.93;;;16.20;99.90;;;;;;5054208;28;20040;-47
2022/06/05 06:47:03;;;;;;;13.40;9.52;;;15.10;99.90;;;;;;5037568;28;20036;-44
2022/06/05 06:49:30;;;;;;;14.10;10.85;;;15.10;99.90;;;;;;5053562;28;20056;-45
2022/06/05 06:51:56;;;;;;;14.07;9.65;;;15.20;99.90;;;;;;5056811;28;20052;-48
2022/06/05 06:54:22;;;;;;;12.63;9.60;;;15.20;99.90;;;;;;5037596;28;20040;-44
2022/06/05 06:56:48;;;;;;;14.77;9.45;;;16.10;99.90;;;;;;5054077;28;20521;-47
2022/06/05 06:59:13;;;;;;;15.23;10.15;;;17.00;99.90;;;;;;5055888;28;20056;-45
2022/06/05 07:01:39;;;;;;;17.35;9.55;;;16.40;99.90;;;;;;5088476;28;20509;-46
2022/06/05 07:04:05;;;;;;;12.70;9.65;;;15.80;99.90;;;;;;5038865;28;20588;-43
2022/06/05 07:06:32;;;;;;;12.27;8.90;;;15.80;99.90;;;;;;5054185;28;20362;-44
2022/06/05 07:08:58;;;;;;;14.23;9.35;;;16.70;99.90;;;;;;5051146;28;20076;-45
2022/06/05 07:11:24;;;;;;;14.52;9.10;;;16.40;99.90;;;;;;5053557;28;20120;-43
2022/06/05 07:13:50;;;;;;;11.70;9.15;;;18.10;99.90;;;;;;5037009;28;20114;-45
2022/06/05 07:16:16;;;;;;;12.65;9.00;;;16.90;99.90;;;;;;5053262;28;20126;-44
2022/06/05 07:18:42;;;;;;;11.10;8.57;;;17.10;99.90;;;;;;5050045;28;20677;-46
2022/06/05 07:21:20;;;;;;;12.20;8.30;;;19.20;99.90;;;;;;5055299;28;20051;-43
2022/06/05 07:23:47;;;;;;;13.07;7.93;;;17.50;99.90;;;;;;5051839;28;20174;-47
2022/06/05 07:26:17;;;;;;;11.43;8.10;;;19.70;99.90;;;;;;5035773;28;20063;-43
2022/06/05 07:28:43;;;;;;;12.38;8.40;;;18.10;99.90;;;;;;5053398;28;20124;-45
2022/06/05 07:31:11;;;;;;;10.63;7.88;;;18.40;99.90;;;;;;5052779;28;20535;-45
2022/06/05 07:33:37;;;;;;;10.85;7.60;;;19.20;99.90;;;;;;5086609;28;20036;-46
2022/06/05 07:36:06;;;;;;;11.30;7.57;;;19.50;99.90;;;;;;5086291;28;20139;-47
2022/06/05 07:38:33;;;;;;;10.35;7.88;;;19.50;99.90;;;;;;5052563;28;20045;-44
2022/06/05 07:40:59;;;;;;;12.35;7.13;;;20.00;99.90;;;;;;5053297;28;20048;-43
2022/06/05 07:43:25;;;;;;;10.25;7.32;;;20.20;99.90;;;;;;5053734;28;20040;-43
2022/06/05 07:45:50;;;;;;;12.32;7.78;;;20.40;99.90;;;;;;5051610;28;20435;-47
2022/06/05 07:48:19;;;;;;;10.85;7.07;;;20.20;99.90;;;;;;5047358;28;20123;-43
2022/06/05 07:56:29;;;;;;;9.57;7.07;;;20.80;99.90;;;;;;5017028;28;20634;-46
2022/06/05 07:58:54;;;;;;;9.00;6.65;;;20.90;99.90;;;;;;5015438;28;20117;-45
2022/06/05 08:01:20;;;;;;;10.52;6.82;;;19.20;99.90;;;;;;5015222;28;20493;-46
2022/06/05 08:03:46;;;;;;;9.52;7.43;;;21.70;99.90;;;;;;5015179;28;20076;-43
2022/06/05 08:06:13;;;;;;;10.45;6.57;;;19.70;99.90;;;;;;5002891;28;20170;-46
2022/06/05 08:08:39;;;;;;;9.13;7.55;;;20.30;99.90;;;;;;5015516;28;20401;-44
2022/06/05 08:11:05;;;;;;;9.18;7.22;;;21.50;99.90;;;;;;5014813;28;20341;-45
2022/06/05 08:13:31;;;;;;;10.35;7.40;;;20.30;99.90;;;;;;5015055;28;20049;-43
2022/06/05 08:15:57;;;;;;;11.07;7.93;;;21.70;99.90;;;;;;4999348;28;20187;-43
2022/06/05 08:18:23;;;;;;;9.98;6.95;;;19.60;99.90;;;;;;5018874;28;20138;-45
2022/06/05 08:20:50;;;;;;;13.60;7.10;;;20.00;99.90;;;;;;5031197;28;20438;-43
2022/06/05 08:23:16;;;;;;;10.45;7.00;;;20.80;99.90;;;;;;4998232;28;20077;-49
2022/06/05 08:25:42;;;;;;;9.80;6.85;;;20.10;99.90;;;;;;4998271;28;20450;-44
2022/06/05 08:28:10;;;;;;;11.05;6.80;;;20.00;99.90;;;;;;5014676;28;20055;-45
2022/06/05 08:30:37;;;;;;;9.60;6.75;;;20.90;99.90;;;;;;5041866;28;20045;-44
2022/06/05 08:33:05;;;;;;;10.40;6.60;;;22.40;99.90;;;;;;5053210;28;20524;-45
2022/06/05 08:35:32;;;;;;;9.80;7.13;;;20.40;99.90;;;;;;5035264;28;20060;-43
2022/06/05 08:41:27;;;;;;;10.15;6.88;;;21.10;99.90;;;;;;5051731;28;20052;-43
2022/06/05 08:44:23;;;;;;;12.20;7.85;;;20.60;99.90;;;;;;5050722;28;20091;-45
2022/06/05 08:47:25;;;;;;;10.15;7.40;;;20.30;99.90;;;;;;5046716;28;20145;-46
2022/06/05 08:50:11;;;;;;;9.30;6.88;;;20.00;99.90;;;;;;5046236;28;20051;-46
2022/06/05 08:52:56;;;;;;;9.55;7.05;;;20.00;99.90;;;;;;5050899;28;20506;-48
2022/06/05 08:55:30;;;;;;;8.80;6.72;;;20.10;99.90;;;;;;5085381;28;20056;-45
2022/06/05 08:58:06;;;;;;;9.10;6.15;;;20.10;99.90;;;;;;5052598;28;20140;-48
2022/06/05 09:00:42;;;;;;;11.32;6.93;;;20.10;99.90;;;;;;5050243;28;20478;-46
2022/06/05 09:03:19;;;;;;;8.30;6.45;;;20.10;99.90;;;;;;5050973;28;20045;-44
2022/06/05 09:05:50;;;;;;;11.75;6.53;;;20.60;99.90;;;;;;5051990;28;20053;-48
2022/06/05 09:08:22;;;;;;;9.32;6.00;;;22.40;99.90;;;;;;5050023;28;20095;-47
2022/06/05 09:10:51;;;;;;;11.15;6.90;;;20.40;99.90;;;;;;5051880;28;20179;-48
2022/06/05 09:13:28;;;;;;;8.93;6.45;;;20.50;99.90;;;;;;5048903;28;20373;-49
2022/06/05 09:16:06;;;;;;;7.75;6.22;;;20.50;99.90;;;;;;5022515;28;20052;-45
2022/06/05 09:18:37;;;;;;;8.75;6.30;;;20.60;99.90;;;;;;5051056;28;20723;-46
2022/06/05 09:21:12;;;;;;;8.77;6.10;;;20.40;99.90;;;;;;5085733;28;20851;-49
2022/06/05 09:23:41;;;;;;;8.27;5.50;;;20.70;99.90;;;;;;5050196;28;20048;-45
2022/06/05 09:26:38;;;;;;;9.68;6.05;;;20.70;99.90;;;;;;5051998;28;20459;-48
2022/06/05 09:29:30;;;;;;;10.45;6.57;;;20.50;99.90;;;;;;5046456;28;20060;-49
2022/06/05 09:32:43;;;;;;;13.55;6.75;;;20.60;99.90;;;;;;5032155;28;20064;-47
2022/06/05 09:35:26;;;;;;;13.35;6.85;;;20.60;99.90;;;;;;4992129;28;20056;-47
2022/06/05 09:38:09;;;;;;;8.93;6.25;;;20.70;99.90;;;;;;4973041;28;20046;-49
2022/06/05 09:40:38;;;;;;;13.45;6.32;;;21.00;99.90;;;;;;4974594;28;20046;-47
2022/06/05 09:43:40;;;;;;;8.77;6.25;;;22.40;99.90;;;;;;5006711;28;20046;-50
2022/06/05 09:46:18;;;;;;;9.32;6.07;;;21.00;99.90;;;;;;4972405;28;20234;-49
2022/06/05 09:49:09;;;;;;;8.85;6.00;;;20.90;99.90;;;;;;4973856;28;20126;-49
2022/06/05 09:51:40;;;;;;;8.07;6.03;;;22.40;99.90;;;;;;4989036;28;20050;-50
2022/06/05 09:54:16;;;;;;;9.83;6.23;;;21.30;99.90;;;;;;4989464;28;20506;-49
2022/06/05 10:00:00;;;;;;;13.68;6.07;;;21.30;99.90;;;;;;4988600;28;20067;-53
2022/06/05 10:02:29;;;;;;;8.82;5.90;;;21.50;99.90;;;;;;4988109;28;20644;-49
2022/06/05 10:04:55;;;;;;;10.25;5.78;;;21.40;99.90;;;;;;5006375;28;20414;-46
2022/06/05 10:07:32;;;;;;;8.23;6.22;;;21.50;99.90;;;;;;4989543;28;20037;-48
2022/06/05 10:10:04;;;;;;;9.75;6.40;;;21.50;99.90;;;;;;5005572;28;20064;-49
2022/06/05 10:12:44;;;;;;;7.72;6.05;;;22.70;99.90;;;;;;5032601;28;20047;-50
2022/06/05 10:15:19;;;;;;;8.82;6.43;;;21.20;99.90;;;;;;5036706;28;20076;-50
2022/06/05 10:17:56;;;;;;;9.15;5.90;;;22.60;99.90;;;;;;5054495;28;20142;-49
2022/06/05 10:20:40;;;;;;;7.15;5.57;;;20.90;99.90;;;;;;5055202;28;20037;-49
2022/06/05 10:23:16;;;;;;;10.35;6.50;;;21.20;99.90;;;;;;5054700;28;20052;-50
2022/06/05 10:25:51;;;;;;;7.28;6.13;;;21.20;99.90;;;;;;5053878;28;20044;-50
2022/06/05 10:28:28;;;;;;;7.05;5.80;;;21.40;99.90;;;;;;5052599;28;20036;-48
2022/06/05 10:30:57;;;;;;;8.63;5.82;;;21.30;99.90;;;;;;5054907;28;20123;-49
2022/06/05 10:33:59;;;;;;;8.90;5.65;;;21.40;99.90;;;;;;5037982;28;20048;-48
2022/06/05 10:36:43;;;;;;;8.90;5.88;;;21.40;99.90;;;;;;5036486;28;20052;-47
2022/06/05 10:39:34;;;;;;;6.90;4.90;;;21.40;99.90;;;;;;5035830;28;20068;-45
2022/06/05 10:42:11;;;;;;;8.57;5.57;;;21.50;99.90;;;;;;5036961;28;20049;-49
2022/06/05 10:44:58;;;;;;;7.28;4.82;;;21.30;99.90;;;;;;5052167;28;20505;-47
2022/06/05 10:47:49;;;;;;;7.47;5.38;;;21.50;99.90;;;;;;5017732;28;20104;-48
2022/06/05 10:50:22;;;;;;;8.95;4.78;;;21.60;99.90;;;;;;5034715;28;20040;-45
2022/06/05 10:53:12;;;;;;;6.80;5.30;;;21.60;99.90;;;;;;5018890;28;20048;-47
2022/06/05 10:55:55;;;;;;;10.75;5.45;;;21.80;99.90;;;;;;5034539;28;20036;-48
2022/06/05 10:58:27;;;;;;;8.90;5.72;;;21.60;99.90;;;;;;5036156;28;20049;-47
2022/06/05 11:01:02;;;;;;;9.88;5.43;;;23.70;99.90;;;;;;5036533;28;20076;-44
2022/06/05 11:03:46;;;;;;;7.95;5.25;;;21.60;99.90;;;;;;5036144;28;20040;-49
2022/06/05 11:06:33;;;;;;;7.10;5.03;;;21.40;99.90;;;;;;5036268;28;20390;-45
2022/06/05 11:09:01;;;;;;;9.13;5.22;;;21.70;99.90;;;;;;5034820;28;20060;-48
2022/06/05 11:14:52;;;;;;;8.57;5.20;;;21.50;99.90;;;;;;5052742;28;20050;-49
2022/06/05 11:18:02;;;;;;;7.78;5.05;;;21.70;99.90;;;;;;5049641;28;20208;-46
2022/06/05 11:20:29;;;;;;;7.22;5.05;;;21.80;99.90;;;;;;4976063;28;20684;-47
2022/06/05 11:23:06;;;;;;;10.43;4.97;;;21.60;99.90;;;;;;4940701;28;20054;-50
2022/06/05 11:25:36;;;;;;;7.82;5.30;;;21.80;99.90;;;;;;4956010;28;20073;-53
2022/06/05 11:28:20;;;;;;;7.05;5.05;;;21.80;99.90;;;;;;4956588;28;20062;-49
2022/06/05 11:31:08;;;;;;;8.90;5.00;;;21.50;99.90;;;;;;4957093;28;20046;-47
2022/06/05 11:33:48;;;;;;;8.05;5.75;;;21.60;99.90;;;;;;4956477;28;20046;-45
2022/06/05 11:36:23;;;;;;;7.45;5.40;;;21.60;99.90;;;;;;4957715;28;20038;-45
2022/06/05 11:39:07;;;;;;;7.63;5.65;;;21.50;99.90;;;;;;4956179;28;21223;-44
2022/06/05 11:41:51;;;;;;;7.40;4.75;;;21.50;99.90;;;;;;4958101;28;20511;-46
2022/06/05 11:44:36;;;;;;;9.50;4.85;;;21.60;99.90;;;;;;4954654;28;20054;-45
2022/06/05 11:47:07;;;;;;;6.65;4.70;;;21.60;99.90;;;;;;4955980;28;20583;-46
2022/06/05 11:49:56;;;;;;;9.88;5.18;;;21.80;99.90;;;;;;4957079;28;20589;-49
2022/06/05 11:52:31;;;;;;;7.90;5.05;;;21.60;99.90;;;;;;4897355;29;20688;-45
2022/06/05 11:55:02;;;;;;;8.38;5.13;;;21.90;99.90;;;;;;4898826;29;20051;-48
2022/06/05 11:57:54;;;;;;;6.85;4.63;;;21.90;99.90;;;;;;4941672;28;20050;-45
2022/06/05 12:00:24;;;;;;;;;;;21.80;99.90;;;;;;4922454;28;20054;-49
2022/06/05 12:02:58;;;;;;;7.57;4.22;;;22.00;99.90;;;;;;4935838;28;20136;-44
2022/06/05 12:05:38;;;;;;;6.40;4.40;;;22.10;99.90;;;;;;4937482;28;20141;-46
2022/06/05 12:08:09;;;;;;;6.57;4.65;;;22.20;99.90;;;;;;4926106;28;20447;-45
2022/06/05 12:10:59;;;;;;;6.75;4.20;;;21.90;99.90;;;;;;4935675;28;20516;-49
2022/06/05 12:13:52;;;;;;;7.93;4.40;;;22.10;99.90;;;;;;4938297;28;20142;-45
2022/06/05 12:16:27;;;;;;;5.28;3.55;;;22.20;99.90;;;;;;4953721;28;20811;-49
2022/06/05 12:19:31;;;;;;;13.48;4.97;;;22.20;99.90;;;;;;4952525;28;20776;-45
2022/06/05 12:22:12;;;;;;;7.07;4.32;;;22.30;99.90;;;;;;4881367;29;20059;-49
2022/06/05 12:24:54;;;;;;;6.40;4.30;;;22.40;99.90;;;;;;4877451;29;20079;-47
2022/06/05 12:27:20;;;;;;;7.03;4.25;;;24.50;99.90;;;;;;4895005;29;20111;-48
2022/06/05 12:30:03;;;;;;;6.20;3.78;;;22.40;99.90;;;;;;4898990;29;20055;-47
2022/06/05 12:32:45;;;;;;;7.93;4.20;;;22.20;99.90;;;;;;4917245;28;20492;-45
2022/06/05 12:35:15;;;;;;;5.82;4.05;;;22.50;99.90;;;;;;4916333;29;20056;-44
2022/06/05 12:38:05;;;;;;;6.15;4.40;;;22.40;99.90;;;;;;4930903;28;20068;-45
2022/06/05 12:40:37;;;;;;;7.75;4.13;;;22.50;99.90;;;;;;4916930;29;20086;-50
2022/06/05 12:43:26;;;;;;;8.35;4.30;;;22.80;99.90;;;;;;4914468;29;20121;-49
2022/06/05 12:46:00;;;;;;;6.65;3.90;;;22.70;99.90;;;;;;4915737;29;20262;-47
2022/06/05 12:48:30;;;;;;;6.70;4.20;;;22.50;99.90;;;;;;4914941;29;20674;-46
2022/06/05 12:50:59;;;;;;;6.80;4.15;;;22.40;99.90;;;;;;4912850;29;20043;-49
2022/06/05 12:53:40;;;;;;;6.45;3.67;;;22.70;99.90;;;;;;4932504;28;20196;-46
2022/06/05 12:56:39;;;;;;;8.85;4.13;;;22.50;99.90;;;;;;4951313;28;20116;-48
2022/06/05 12:59:29;;;;;;;5.88;3.65;;;23.10;99.90;;;;;;5013032;28;20064;-48
2022/06/05 13:02:05;;;;;;;7.10;4.60;;;22.50;99.90;;;;;;4994497;28;20477;-48
2022/06/05 13:05:02;;;;;;;7.20;4.25;;;22.60;99.90;;;;;;4978911;28;20766;-46
2022/06/05 13:07:38;;;;;;;6.57;4.45;;;22.50;99.90;;;;;;4991973;28;20050;-49
2022/06/05 13:10:27;;;;;;;9.07;4.28;;;22.40;99.90;;;;;;4994628;28;20711;-45
2022/06/05 13:13:19;;;;;;;7.05;4.10;;;22.40;99.90;;;;;;4993408;28;20329;-45
2022/06/05 13:16:20;;;;;;;;;;;22.30;99.90;;;;;;4995301;28;20585;-47
2022/06/05 13:19:13;;;;;;;6.32;4.15;;;22.40;99.90;;;;;;4916217;29;19926;-49
2022/06/05 13:22:13;;;;;;;7.45;4.20;;;22.30;99.90;;;;;;4932960;29;20073;-46
2022/06/05 13:25:16;;;;;;;5.80;4.38;;;22.40;99.90;;;;;;4916318;29;20328;-46
2022/06/05 13:28:02;;;;;;;8.82;4.13;;;22.50;99.90;;;;;;4869617;29;20088;-45
2022/06/05 13:30:30;;;;;;;10.55;4.20;;;22.10;99.90;;;;;;4849911;29;20056;-47